Terminal Aerodrome Forecast
Issued by NWS

Current Version | Previous Version | Text Only | Print | Product List | Glossary Off
Versions: 1 2 3 4 5 6 7 8 9 10 11 12 13 14 15 16 17 18 19 20 21 22 23 24 25 26 27 28 29 30 31 32 33 34 35 36 37 38 39 40 41 42 43 44 45 46 47 48 49 50

000
FTUS41 KRNK 060809 AAA
TAFLWB
TAF AMD
KLWB 060809Z 0608/0706 00000KT 5SM BR VCSH SCT007 OVC025
      TEMPO 0610/0612 2SM SHRA BR OVC009
     FM061330 25003KT 4SM BR VCSH OVC015
     FM061600 27004KT P6SM -SHRA OVC040=

USA.gov is the U.S. government's official web portal to all federal, state and local government web resources and services.